Orsola Bottiglieri — ICQN — position and weather

sailwx.info

Track history (hours):
 
Tides and Currents Weather Stations Pressure Air Temp Water Temp Dewpoint Dewpoint Depression Visibility Wind Speed Wind Dir Waves Ship Positions

Orsola Bottiglieri

Last reported at 2014-Jul-25 02:31 UTC. Time now 2014-Jul-28 04:14 UTC.
Position N 44°35' E 037°54'.

Length 292 m; draft 10.2 m.

Type: Cargo ship. MMSI: 247304400.

Date/timePositionNaut miles runAvg speedWind from/ knotsBaromVisibWave heightAir tempDewpointWater temp
2014-Jul-25 02:31N 44°35' E 037°54'0 0.0
2014-Jul-24 23:22N 44°35' E 037°54'0 0.0
2014-Jul-24 12:31N 44°35' E 037°54'0 0.0
2014-Jul-24 11:31N 44°35' E 037°54'69 1.8
2014-Jul-22 21:22N 44°02' E 036°29'911.4
2014-Jul-22 20:33N 43°58' E 036°18'1111.1
2014-Jul-22 19:34N 43°53' E 036°05'1211.1
2014-Jul-22 18:28N 43°47' E 035°50'1011.2
2014-Jul-22 17:33N 43°43' E 035°37'1111.3
2014-Jul-22 16:33N 43°37' E 035°23'1111.4
2014-Jul-22 15:34N 43°32' E 035°09'1211.5
2014-Jul-22 14:34N 43°27' E 034°55'1211.7
2014-Jul-22 13:33N 43°21' E 034°41'1211.8
2014-Jul-22 12:34N 43°16' E 034°26'1211.7
2014-Jul-22 11:33N 43°11' E 034°12'  
2014-Jul-19 22:26N 38°17' E 025°29'2110.2
2014-Jul-19 20:22N 37°58' E 025°40'810.2
2014-Jul-19 19:33N 37°50' E 025°43'1110.7
2014-Jul-19 18:31N 37°39' E 025°48'1010.2
2014-Jul-19 17:33N 37°30' E 025°52'1010.2
2014-Jul-19 16:33N 37°21' E 025°58'10 9.6
2014-Jul-19 15:33N 37°13' E 026°04'8 8.0
2014-Jul-19 14:33N 37°06' E 026°08'8 7.9
2014-Jul-19 13:33N 36°59' E 026°13'7 7.5
2014-Jul-19 12:33N 36°53' E 026°19'7 7.3
2014-Jul-19 11:34N 36°47' E 026°25'8 7.9
2014-Jul-19 10:33N 36°41' E 026°31'27 8.8
2014-Jul-19 07:30N 36°21' E 026°54'1410.8
2014-Jul-19 06:10N 36°12' E 027°08'811.9
2014-Jul-19 05:31N 36°06' E 027°14'419 8.7
2014-Jul-17 05:33N 32°33' E 034°31'9 9.2
2014-Jul-17 04:33N 32°31' E 034°41'9 8.6
2014-Jul-17 03:32N 32°28' E 034°51'1 0.9
2014-Jul-17 02:31N 32°28' E 034°52'0 0.0
2014-Jul-17 01:31N 32°28' E 034°52'0 0.0
2014-Jul-17 00:31N 32°28' E 034°52'0 0.0
2014-Jul-16 23:31N 32°28' E 034°52'0 0.0
2014-Jul-16 22:31N 32°28' E 034°52'0 0.0
2014-Jul-16 21:31N 32°28' E 034°52'0 0.0
2014-Jul-16 20:31N 32°28' E 034°52'0 0.0
2014-Jul-16 19:31N 32°28' E 034°52'0 0.0
2014-Jul-16 18:31N 32°28' E 034°52'0 0.0
2014-Jul-16 17:28N 32°28' E 034°52'0 0.0
2014-Jul-16 16:31N 32°28' E 034°52'0 0.0
2014-Jul-16 15:31N 32°28' E 034°52'0 0.0
2014-Jul-16 08:31N 32°28' E 034°52'0 0.0
2014-Jul-16 07:31N 32°28' E 034°52'0 0.0
2014-Jul-16 06:28N 32°28' E 034°52'0 0.0
2014-Jul-16 05:31N 32°28' E 034°52'0 0.0
2014-Jul-16 04:31N 32°28' E 034°52'0 0.0
2014-Jul-16 03:31N 32°28' E 034°52'0 0.0
2014-Jul-16 02:31N 32°28' E 034°52'0 0.0
2014-Jul-16 01:31N 32°28' E 034°52'0 0.0
2014-Jul-16 00:31N 32°28' E 034°52'0 0.0
2014-Jul-15 23:31N 32°28' E 034°52'0 0.0
2014-Jul-15 22:31N 32°28' E 034°52'0 0.0
2014-Jul-15 21:31N 32°28' E 034°52'0 0.0
2014-Jul-15 20:31N 32°28' E 034°52'0 0.0
2014-Jul-15 19:31N 32°28' E 034°52'0 0.0
2014-Jul-15 18:31N 32°28' E 034°52'0 0.0
2014-Jul-15 17:31N 32°28' E 034°52'0 0.0
2014-Jul-15 16:31N 32°28' E 034°52'0 0.0
2014-Jul-15 15:31N 32°28' E 034°52'0 0.0
2014-Jul-15 14:31N 32°28' E 034°52'0 0.0
2014-Jul-15 13:31N 32°28' E 034°52'0 0.0
2014-Jul-15 12:31N 32°28' E 034°52'0 0.0
2014-Jul-15 11:31N 32°28' E 034°52'0 0.0
2014-Jul-15 10:31N 32°28' E 034°52'0 0.0
2014-Jul-15 09:31N 32°28' E 034°52'0 0.0
2014-Jul-15 08:31N 32°28' E 034°52'0 0.0
2014-Jul-15 07:31N 32°28' E 034°52'0 0.0
2014-Jul-15 06:31N 32°28' E 034°52'0 0.0
2014-Jul-15 05:31N 32°28' E 034°52'0 0.0
2014-Jul-15 04:31N 32°28' E 034°52'0 0.0
2014-Jul-15 03:28N 32°28' E 034°52'0 0.0
2014-Jul-15 02:31N 32°28' E 034°52'  
Track history (hours):
 
Tides and Currents Weather Stations Pressure Air Temp Water Temp Dewpoint Dewpoint Depression Visibility Wind Speed Wind Dir Waves Ship Positions

Orsola Bottiglieri

Last reported at 2014-Jul-25 02:31 UTC. Time now 2014-Jul-28 04:14 UTC.
Position N 44°35' E 037°54'.

Length 292 m; draft 10.2 m.

Type: Cargo ship. MMSI: 247304400.

Date/timePositionNaut miles runAvg speedWind from/ knotsBaromVisibWave heightAir tempDewpointWater temp
2014-Jul-25 02:31N 44°35' E 037°54'0 0.0
2014-Jul-24 23:22N 44°35' E 037°54'0 0.0
2014-Jul-24 12:31N 44°35' E 037°54'0 0.0
2014-Jul-24 11:31N 44°35' E 037°54'69 1.8
2014-Jul-22 21:22N 44°02' E 036°29'911.4
2014-Jul-22 20:33N 43°58' E 036°18'1111.1
2014-Jul-22 19:34N 43°53' E 036°05'1211.1
2014-Jul-22 18:28N 43°47' E 035°50'1011.2
2014-Jul-22 17:33N 43°43' E 035°37'1111.3
2014-Jul-22 16:33N 43°37' E 035°23'1111.4
2014-Jul-22 15:34N 43°32' E 035°09'1211.5
2014-Jul-22 14:34N 43°27' E 034°55'1211.7
2014-Jul-22 13:33N 43°21' E 034°41'1211.8
2014-Jul-22 12:34N 43°16' E 034°26'1211.7
2014-Jul-22 11:33N 43°11' E 034°12'  
2014-Jul-19 22:26N 38°17' E 025°29'2110.2
2014-Jul-19 20:22N 37°58' E 025°40'810.2
2014-Jul-19 19:33N 37°50' E 025°43'1110.7
2014-Jul-19 18:31N 37°39' E 025°48'1010.2
2014-Jul-19 17:33N 37°30' E 025°52'1010.2
2014-Jul-19 16:33N 37°21' E 025°58'10 9.6
2014-Jul-19 15:33N 37°13' E 026°04'8 8.0
2014-Jul-19 14:33N 37°06' E 026°08'8 7.9
2014-Jul-19 13:33N 36°59' E 026°13'7 7.5
2014-Jul-19 12:33N 36°53' E 026°19'7 7.3
2014-Jul-19 11:34N 36°47' E 026°25'8 7.9
2014-Jul-19 10:33N 36°41' E 026°31'27 8.8
2014-Jul-19 07:30N 36°21' E 026°54'1410.8
2014-Jul-19 06:10N 36°12' E 027°08'811.9
2014-Jul-19 05:31N 36°06' E 027°14'419 8.7
2014-Jul-17 05:33N 32°33' E 034°31'9 9.2
2014-Jul-17 04:33N 32°31' E 034°41'9 8.6
2014-Jul-17 03:32N 32°28' E 034°51'1 0.9
2014-Jul-17 02:31N 32°28' E 034°52'0 0.0
2014-Jul-17 01:31N 32°28' E 034°52'0 0.0
2014-Jul-17 00:31N 32°28' E 034°52'0 0.0
2014-Jul-16 23:31N 32°28' E 034°52'0 0.0
2014-Jul-16 22:31N 32°28' E 034°52'0 0.0
2014-Jul-16 21:31N 32°28' E 034°52'0 0.0
2014-Jul-16 20:31N 32°28' E 034°52'0 0.0
2014-Jul-16 19:31N 32°28' E 034°52'0 0.0
2014-Jul-16 18:31N 32°28' E 034°52'0 0.0
2014-Jul-16 17:28N 32°28' E 034°52'0 0.0
2014-Jul-16 16:31N 32°28' E 034°52'0 0.0
2014-Jul-16 15:31N 32°28' E 034°52'0 0.0
2014-Jul-16 08:31N 32°28' E 034°52'0 0.0
2014-Jul-16 07:31N 32°28' E 034°52'0 0.0
2014-Jul-16 06:28N 32°28' E 034°52'0 0.0
2014-Jul-16 05:31N 32°28' E 034°52'0 0.0
2014-Jul-16 04:31N 32°28' E 034°52'0 0.0
2014-Jul-16 03:31N 32°28' E 034°52'0 0.0
2014-Jul-16 02:31N 32°28' E 034°52'0 0.0
2014-Jul-16 01:31N 32°28' E 034°52'0 0.0
2014-Jul-16 00:31N 32°28' E 034°52'0 0.0
2014-Jul-15 23:31N 32°28' E 034°52'0 0.0
2014-Jul-15 22:31N 32°28' E 034°52'0 0.0
2014-Jul-15 21:31N 32°28' E 034°52'0 0.0
2014-Jul-15 20:31N 32°28' E 034°52'0 0.0
2014-Jul-15 19:31N 32°28' E 034°52'0 0.0
2014-Jul-15 18:31N 32°28' E 034°52'0 0.0
2014-Jul-15 17:31N 32°28' E 034°52'0 0.0
2014-Jul-15 16:31N 32°28' E 034°52'0 0.0
2014-Jul-15 15:31N 32°28' E 034°52'0 0.0
2014-Jul-15 14:31N 32°28' E 034°52'0 0.0
2014-Jul-15 13:31N 32°28' E 034°52'0 0.0
2014-Jul-15 12:31N 32°28' E 034°52'0 0.0
2014-Jul-15 11:31N 32°28' E 034°52'0 0.0
2014-Jul-15 10:31N 32°28' E 034°52'0 0.0
2014-Jul-15 09:31N 32°28' E 034°52'0 0.0
2014-Jul-15 08:31N 32°28' E 034°52'0 0.0
2014-Jul-15 07:31N 32°28' E 034°52'0 0.0
2014-Jul-15 06:31N 32°28' E 034°52'0 0.0
2014-Jul-15 05:31N 32°28' E 034°52'0 0.0
2014-Jul-15 04:31N 32°28' E 034°52'0 0.0
2014-Jul-15 03:28N 32°28' E 034°52'0 0.0
2014-Jul-15 02:31N 32°28' E 034°52'  

Dump ship's entire track history